createdAt,value
2022-10-09T00:01:51.450Z,95938.63
2022-10-09T00:04:18.463Z,95935.19
2022-10-09T00:06:45.726Z,95931.59
2022-10-09T00:09:12.912Z,95937.44
2022-10-09T00:11:40.228Z,95939.66
2022-10-09T00:14:07.906Z,95942.38
2022-10-09T00:16:36.672Z,95936.28
2022-10-09T00:19:04.082Z,95938.72
2022-10-09T00:21:34.041Z,95932.28
2022-10-09T00:26:54.625Z,95943.03
2022-10-09T00:29:21.706Z,95945.03
2022-10-09T00:31:51.367Z,95937.41
2022-10-09T00:34:18.525Z,95932.94
2022-10-09T00:36:45.565Z,95942.69
2022-10-09T00:39:12.606Z,95940.97
2022-10-09T00:41:39.809Z,95938.47
2022-10-09T00:44:40.108Z,95930.28
2022-10-09T00:47:18.769Z,95933.69
2022-10-09T00:49:48.367Z,95935.66
2022-10-09T00:52:16.687Z,95927.31
2022-10-09T00:54:44.800Z,95928.91
2022-10-09T00:57:12.642Z,95926.13
2022-10-09T00:59:40.685Z,95920.84
2022-10-09T01:02:08.135Z,95928.31
2022-10-09T01:04:36.864Z,95927.50
2022-10-09T01:07:27.882Z,95920.31
2022-10-09T01:10:02.128Z,95920.31
2022-10-09T01:12:46.630Z,95920.09
2022-10-09T01:15:20.160Z,95917.88
2022-10-09T01:18:00.453Z,95913.69
2022-10-09T01:20:41.749Z,95913.75
2022-10-09T01:23:34.066Z,95920.53
2022-10-09T01:29:10.304Z,95908.72
2022-10-09T01:31:42.784Z,95905.19
2022-10-09T01:34:14.021Z,95906.53
2022-10-09T01:36:44.103Z,95901.44
2022-10-09T01:39:18.125Z,95895.72
2022-10-09T01:41:48.221Z,95893.19
2022-10-09T01:44:18.485Z,95897.25
2022-10-09T01:46:46.881Z,95883.00
2022-10-09T01:49:29.203Z,95882.09
2022-10-09T01:52:05.655Z,95882.22
2022-10-09T01:54:43.002Z,95879.00
2022-10-09T01:57:14.221Z,95880.16
2022-10-09T01:59:47.562Z,95878.41
2022-10-09T02:02:15.797Z,95878.75
2022-10-09T02:04:44.697Z,95872.13
2022-10-09T02:07:11.902Z,95868.44
2022-10-09T02:09:40.965Z,95862.94
2022-10-09T02:12:12.896Z,95875.94
2022-10-09T02:14:40.215Z,95871.66
2022-10-09T02:17:17.374Z,95873.28
2022-10-09T02:19:50.874Z,95868.09
2022-10-09T02:22:20.357Z,95869.25
2022-10-09T02:24:48.274Z,95870.75
2022-10-09T02:27:16.553Z,95875.84
2022-10-09T02:29:46.174Z,95871.91
2022-10-09T02:32:16.181Z,95870.19
2022-10-09T02:34:43.517Z,95866.63
2022-10-09T02:37:10.933Z,95868.44
2022-10-09T02:39:38.294Z,95872.38
2022-10-09T02:42:05.596Z,95871.09
2022-10-09T02:44:32.714Z,95865.34
2022-10-09T02:46:59.753Z,95872.38
2022-10-09T02:49:28.360Z,95874.91
2022-10-09T02:51:55.374Z,95872.47
2022-10-09T02:54:22.413Z,95869.03
2022-10-09T02:56:49.494Z,95871.53
2022-10-09T02:59:16.593Z,95865.22
2022-10-09T03:01:43.717Z,95869.66
2022-10-09T03:04:10.892Z,95868.84
2022-10-09T03:06:39.336Z,95864.91
2022-10-09T03:09:06.453Z,95870.09
2022-10-09T03:11:33.514Z,95867.97
2022-10-09T03:14:00.600Z,95867.69
2022-10-09T03:16:28.067Z,95864.09
2022-10-09T03:18:55.655Z,95866.75
2022-10-09T03:21:25.715Z,95876.16
2022-10-09T03:23:55.856Z,95877.47
2022-10-09T03:26:25.214Z,95867.63
2022-10-09T03:28:54.216Z,95870.38
2022-10-09T03:36:37.994Z,95881.00
2022-10-09T03:39:06.469Z,95876.78
2022-10-09T03:41:33.557Z,95880.75
2022-10-09T03:44:00.674Z,95879.94
2022-10-09T03:46:28.138Z,95879.38
2022-10-09T03:48:55.255Z,95882.00
2022-10-09T03:51:22.334Z,95883.63
2022-10-09T03:53:49.393Z,95880.50
2022-10-09T03:56:17.914Z,95882.91
2022-10-09T03:58:44.994Z,95875.25
2022-10-09T04:01:12.193Z,95877.34
2022-10-09T04:03:39.354Z,95881.31
2022-10-09T04:06:06.834Z,95881.31
2022-10-09T04:08:35.136Z,95878.91
2022-10-09T04:11:02.781Z,95876.16
2022-10-09T04:15:58.366Z,95883.09
2022-10-09T04:18:25.754Z,95882.97
2022-10-09T04:20:55.016Z,95886.88
2022-10-09T04:23:25.088Z,95881.59
2022-10-09T04:25:54.156Z,95885.53
2022-10-09T04:28:21.626Z,95893.50
2022-10-09T04:30:50.234Z,95885.06
2022-10-09T04:33:17.338Z,95892.53
2022-10-09T04:35:45.310Z,95890.84
2022-10-09T04:38:12.895Z,95884.41
2022-10-09T04:40:40.595Z,95892.69
2022-10-09T04:43:07.675Z,95888.66
2022-10-09T04:45:39.437Z,95890.88
2022-10-09T04:48:07.973Z,95892.38
2022-10-09T04:50:38.215Z,95894.94
2022-10-09T04:53:05.357Z,95899.69
2022-10-09T04:55:32.396Z,95887.84
2022-10-09T04:57:59.415Z,95887.13
2022-10-09T05:00:26.454Z,95884.59
2022-10-09T05:02:53.494Z,95886.88
2022-10-09T05:05:22.015Z,95889.22
2022-10-09T05:07:49.096Z,95888.44
2022-10-09T05:10:16.215Z,95887.94
2022-10-09T05:12:43.295Z,95897.72
2022-10-09T05:15:10.758Z,95899.09
2022-10-09T05:17:37.804Z,95898.66
2022-10-09T05:20:05.473Z,95886.47
2022-10-09T05:22:33.954Z,95888.97
2022-10-09T05:25:00.975Z,95893.59
2022-10-09T05:27:28.054Z,95889.13
2022-10-09T05:29:55.074Z,95890.97
2022-10-09T05:32:22.133Z,95888.19
2022-10-09T05:34:49.196Z,95888.41
2022-10-09T05:37:16.234Z,95880.81
2022-10-09T05:39:44.728Z,95888.78
2022-10-09T05:42:11.793Z,95880.47
2022-10-09T05:44:38.856Z,95881.84
2022-10-09T05:47:05.895Z,95883.09
2022-10-09T05:49:32.937Z,95893.50
2022-10-09T05:52:00.040Z,95886.25
2022-10-09T05:54:27.315Z,95885.44
2022-10-09T05:56:55.714Z,95887.38
2022-10-09T05:59:22.734Z,95894.53
2022-10-09T06:01:51.610Z,95893.38
2022-10-09T06:04:21.196Z,95897.06
2022-10-09T06:06:49.354Z,95898.31
2022-10-09T06:09:18.766Z,95892.44
2022-10-09T06:11:45.794Z,95892.69
2022-10-09T06:14:14.435Z,95891.63
2022-10-09T06:16:43.683Z,95898.44
2022-10-09T06:19:13.115Z,95891.06
2022-10-09T06:21:40.535Z,95892.09
2022-10-09T06:24:08.355Z,95895.22
2022-10-09T06:26:35.446Z,95893.72
2022-10-09T06:29:03.222Z,95897.97
2022-10-09T06:31:33.715Z,95901.00
2022-10-09T06:34:02.455Z,95904.47
2022-10-09T06:36:31.057Z,95898.81
2022-10-09T06:39:00.195Z,95899.00
2022-10-09T06:41:28.714Z,95899.16
2022-10-09T06:43:57.855Z,95903.31
2022-10-09T06:46:27.332Z,95901.56
2022-10-09T06:48:56.595Z,95900.88
2022-10-09T06:51:24.118Z,95897.31
2022-10-09T06:53:53.714Z,95897.44
2022-10-09T06:56:23.456Z,95897.44
2022-10-09T06:58:50.816Z,95905.97
2022-10-09T07:01:20.249Z,95905.34
2022-10-09T07:03:52.417Z,95903.59
2022-10-09T07:06:23.074Z,95895.44
2022-10-09T07:08:53.537Z,95900.28
2022-10-09T07:11:23.615Z,95905.91
2022-10-09T07:13:54.074Z,95917.91
2022-10-09T07:16:23.149Z,95911.09
2022-10-09T07:18:50.894Z,95920.19
2022-10-09T07:21:17.955Z,95913.75
2022-10-09T07:23:46.743Z,95908.00
2022-10-09T07:26:17.299Z,95907.06
2022-10-09T07:28:45.590Z,95908.97
2022-10-09T07:31:12.897Z,95907.25
2022-10-09T07:33:40.927Z,95914.75
2022-10-09T07:36:09.874Z,95913.06
2022-10-09T07:38:37.914Z,95911.81
2022-10-09T07:41:08.995Z,95918.56
2022-10-09T07:43:37.534Z,95917.69
2022-10-09T07:46:07.373Z,95930.16
2022-10-09T07:48:35.418Z,95930.88
2022-10-09T07:51:08.906Z,95924.44
2022-10-09T07:53:36.268Z,95930.78
2022-10-09T07:56:04.337Z,95925.28
2022-10-09T07:58:33.175Z,95929.97
2022-10-09T08:01:04.614Z,95925.38
2022-10-09T08:03:31.794Z,95930.22
2022-10-09T08:05:58.878Z,95923.16
2022-10-09T08:08:26.159Z,95924.66
2022-10-09T08:10:53.315Z,95928.25
2022-10-09T08:13:20.455Z,95924.44
2022-10-09T08:15:48.982Z,95915.09
2022-10-09T08:18:16.600Z,95924.19
2022-10-09T08:20:43.974Z,95917.03
2022-10-09T08:23:11.014Z,95922.91
2022-10-09T08:25:38.153Z,95926.38
2022-10-09T08:28:05.856Z,95928.47
2022-10-09T08:30:32.955Z,95926.94
2022-10-09T08:33:01.435Z,95931.69
2022-10-09T08:35:33.725Z,95926.47
2022-10-09T08:38:01.633Z,95929.69
2022-10-09T08:40:42.374Z,95933.84
2022-10-09T08:43:17.434Z,95931.69
2022-10-09T08:45:47.813Z,95927.97
2022-10-09T08:48:22.296Z,95929.94
2022-10-09T08:50:53.775Z,95941.91
2022-10-09T08:53:36.893Z,95937.63
2022-10-09T08:56:06.376Z,95935.56
2022-10-09T08:58:36.775Z,95932.91
2022-10-09T09:01:12.707Z,95925.72
2022-10-09T09:04:06.215Z,95927.91
2022-10-09T09:06:42.780Z,95926.13
2022-10-09T09:09:19.736Z,95927.75
2022-10-09T09:11:53.635Z,95926.47
2022-10-09T09:14:39.874Z,95932.41
2022-10-09T09:17:22.036Z,95926.13
2022-10-09T09:20:06.295Z,95927.34
2022-10-09T09:22:36.335Z,95921.16
2022-10-09T09:25:21.154Z,95924.63
2022-10-09T09:27:49.478Z,95925.75
2022-10-09T09:30:22.934Z,95926.88
2022-10-09T09:32:59.759Z,95925.84
2022-10-09T09:35:39.854Z,95914.75
2022-10-09T09:38:07.477Z,95911.63
2022-10-09T09:40:37.325Z,95910.59
2022-10-09T09:43:16.594Z,95920.28
2022-10-09T09:45:45.500Z,95913.69
2022-10-09T09:48:18.838Z,95917.69
2022-10-09T09:51:10.220Z,95912.63
2022-10-09T09:53:44.058Z,95910.53
2022-10-09T09:56:11.656Z,95913.81
2022-10-09T09:58:44.355Z,95911.25
2022-10-09T10:01:22.138Z,95909.97
2022-10-09T10:03:51.195Z,95909.16
2022-10-09T10:06:24.423Z,95904.44
2022-10-09T10:09:02.842Z,95910.97
2022-10-09T10:11:33.357Z,95904.03
2022-10-09T10:14:07.176Z,95901.84
2022-10-09T10:16:38.585Z,95898.31
2022-10-09T10:19:06.247Z,95901.38
2022-10-09T10:21:47.798Z,95895.94
2022-10-09T10:24:23.055Z,95897.06
2022-10-09T10:26:56.596Z,95890.31
2022-10-09T10:29:32.520Z,95892.56
2022-10-09T10:32:06.835Z,95885.72
2022-10-09T10:34:43.234Z,95885.38
2022-10-09T10:37:28.096Z,95879.00
2022-10-09T10:40:03.254Z,95871.50
2022-10-09T10:42:42.218Z,95874.81
2022-10-09T10:45:16.235Z,95872.44
2022-10-09T10:47:51.365Z,95870.06
2022-10-09T10:50:21.546Z,95875.66
2022-10-09T10:53:03.747Z,95873.75
2022-10-09T10:55:49.065Z,95873.81
2022-10-09T10:58:26.828Z,95875.22
2022-10-09T11:01:20.332Z,95862.78
2022-10-09T11:04:28.329Z,95860.91
2022-10-09T11:07:08.931Z,95860.09
2022-10-09T11:09:52.862Z,95859.91
2022-10-09T11:12:47.888Z,95854.50
2022-10-09T11:15:26.847Z,95850.25
2022-10-09T11:18:06.509Z,95844.31
2022-10-09T11:20:59.588Z,95852.53
2022-10-09T11:23:39.988Z,95848.19
2022-10-09T11:26:20.524Z,95847.28
2022-10-09T11:28:53.675Z,95842.03
2022-10-09T11:31:29.038Z,95843.25
2022-10-09T11:34:03.510Z,95839.16
2022-10-09T11:36:38.754Z,95834.38
2022-10-09T11:39:12.944Z,95830.34
2022-10-09T11:41:44.498Z,95827.63
2022-10-09T11:44:35.760Z,95824.75
2022-10-09T11:47:12.879Z,95823.44
2022-10-09T11:50:00.183Z,95816.34
2022-10-09T11:52:41.739Z,95814.09
2022-10-09T11:55:17.899Z,95806.63
2022-10-09T11:57:46.626Z,95809.75
2022-10-09T12:00:15.124Z,95802.97
2022-10-09T12:02:43.927Z,95806.19
2022-10-09T12:05:28.031Z,95809.47
2022-10-09T12:08:06.331Z,95799.28
2022-10-09T12:10:35.430Z,95807.00
2022-10-09T12:13:07.528Z,95801.72
2022-10-09T12:15:46.009Z,95797.44
2022-10-09T12:18:23.411Z,95787.28
2022-10-09T12:20:53.249Z,95788.56
2022-10-09T12:23:27.386Z,95787.16
2022-10-09T12:25:56.929Z,95777.34
2022-10-09T12:28:33.912Z,95775.16
2022-10-09T12:31:05.535Z,95780.31
2022-10-09T12:33:40.288Z,95771.56
2022-10-09T12:36:14.178Z,95766.19
2022-10-09T12:38:42.511Z,95760.84
2022-10-09T12:41:20.420Z,95760.69
2022-10-09T12:43:51.651Z,95763.25
2022-10-09T12:46:29.053Z,95763.00
2022-10-09T12:48:57.542Z,95770.16
2022-10-09T12:51:26.975Z,95759.97
2022-10-09T12:53:54.995Z,95764.88
2022-10-09T12:56:28.452Z,95764.38
2022-10-09T12:58:59.409Z,95758.72
2022-10-09T13:01:27.534Z,95753.94
2022-10-09T13:03:57.468Z,95754.50
2022-10-09T13:06:27.645Z,95759.63
2022-10-09T13:08:59.067Z,95748.63
2022-10-09T13:11:35.369Z,95751.00
2022-10-09T13:14:05.091Z,95748.53
2022-10-09T13:16:44.136Z,95748.34
2022-10-09T13:19:25.607Z,95743.22
2022-10-09T13:22:07.627Z,95748.16
2022-10-09T13:24:36.431Z,95743.22
2022-10-09T13:27:04.967Z,95737.16
2022-10-09T13:29:33.927Z,95739.25
2022-10-09T13:32:01.001Z,95738.19
2022-10-09T13:34:28.326Z,95735.81
2022-10-09T13:36:56.066Z,95734.44
2022-10-09T13:39:23.230Z,95730.97
2022-10-09T13:41:52.167Z,95734.09
2022-10-09T13:44:19.267Z,95726.66
2022-10-09T13:46:47.747Z,95723.44
2022-10-09T13:49:14.847Z,95723.94
2022-10-09T13:51:41.926Z,95719.94
2022-10-09T13:54:09.110Z,95723.38
2022-10-09T13:56:36.245Z,95721.47
2022-10-09T13:59:03.390Z,95715.03
2022-10-09T14:01:30.716Z,95712.38
2022-10-09T14:03:59.326Z,95709.53
2022-10-09T14:06:26.414Z,95712.97
2022-10-09T14:08:53.536Z,95711.91
2022-10-09T14:11:20.687Z,95708.97
2022-10-09T14:13:47.705Z,95703.19
2022-10-09T14:16:14.866Z,95708.50
2022-10-09T14:18:41.946Z,95700.75
2022-10-09T14:21:15.001Z,95701.00
2022-10-09T14:23:43.608Z,95701.75
2022-10-09T14:26:10.751Z,95698.81
2022-10-09T14:28:38.075Z,95701.47
2022-10-09T14:31:06.448Z,95699.34
2022-10-09T14:33:33.686Z,95698.81
2022-10-09T14:36:06.127Z,95689.50
2022-10-09T14:38:37.486Z,95693.22
2022-10-09T14:41:05.064Z,95685.25
2022-10-09T14:43:32.269Z,95687.00
2022-10-09T14:46:03.505Z,95689.47
2022-10-09T14:48:30.607Z,95684.63
2022-10-09T14:51:03.427Z,95684.97
2022-10-09T14:53:30.506Z,95686.25
2022-10-09T14:56:01.726Z,95683.16
2022-10-09T14:58:29.767Z,95686.31
2022-10-09T15:00:57.450Z,95682.00
2022-10-09T15:03:25.525Z,95688.06
2022-10-09T15:05:56.346Z,95685.13
2022-10-09T15:08:23.427Z,95676.50
2022-10-09T15:10:50.486Z,95676.75
2022-10-09T15:13:19.647Z,95681.47
2022-10-09T15:15:46.926Z,95673.84
2022-10-09T15:18:14.367Z,95680.91
2022-10-09T15:20:44.747Z,95673.84
2022-10-09T15:23:12.488Z,95671.13
2022-10-09T15:25:39.545Z,95670.03
2022-10-09T15:28:07.493Z,95669.75
2022-10-09T15:30:36.127Z,95669.66
2022-10-09T15:33:03.329Z,95665.91
2022-10-09T15:35:32.547Z,95666.41
2022-10-09T15:37:59.566Z,95668.78
2022-10-09T15:40:26.765Z,95680.44
2022-10-09T15:42:53.850Z,95671.88
2022-10-09T15:45:20.906Z,95666.00
2022-10-09T15:47:52.130Z,95662.72
2022-10-09T15:50:19.212Z,95665.38
2022-10-09T15:52:46.457Z,95662.41
2022-10-09T15:55:13.727Z,95664.50
2022-10-09T15:57:40.786Z,95658.09
2022-10-09T16:00:09.126Z,95653.84
2022-10-09T16:02:36.188Z,95658.34
2022-10-09T16:05:05.408Z,95662.03
2022-10-09T16:07:32.525Z,95662.28
2022-10-09T16:09:59.526Z,95655.06
2022-10-09T16:12:26.706Z,95652.09
2022-10-09T16:14:53.746Z,95661.91
2022-10-09T16:17:20.811Z,95648.56
2022-10-09T16:19:48.179Z,95651.94
2022-10-09T16:22:16.745Z,95658.53
2022-10-09T16:24:44.047Z,95652.66
2022-10-09T16:27:11.126Z,95655.09
2022-10-09T16:29:38.148Z,95653.16
2022-10-09T16:32:05.265Z,95662.66
2022-10-09T16:34:32.309Z,95659.44
2022-10-09T16:36:59.285Z,95665.22
2022-10-09T16:39:28.086Z,95667.31
2022-10-09T16:41:55.187Z,95669.66
2022-10-09T16:44:22.228Z,95670.47
2022-10-09T16:46:49.286Z,95674.19
2022-10-09T16:49:21.282Z,95676.50
2022-10-09T16:51:51.347Z,95682.03
2022-10-09T16:54:18.429Z,95677.25
2022-10-09T16:56:47.351Z,95677.47
2022-10-09T16:59:14.488Z,95676.69
2022-10-09T17:01:41.809Z,95683.56
2022-10-09T17:04:08.845Z,95679.81
2022-10-09T17:06:36.126Z,95677.97
2022-10-09T17:09:12.583Z,95679.50
2022-10-09T17:11:40.889Z,95692.75
2022-10-09T17:14:10.128Z,95679.50
2022-10-09T17:16:39.947Z,95688.47
2022-10-09T17:19:07.249Z,95683.41
2022-10-09T17:21:34.822Z,95691.38
2022-10-09T17:24:04.788Z,95698.50
2022-10-09T17:26:32.225Z,95701.72
2022-10-09T17:28:59.777Z,95695.66
2022-10-09T17:31:29.913Z,95703.03
2022-10-09T17:33:59.868Z,95705.69
2022-10-09T17:36:28.905Z,95700.38
2022-10-09T17:38:56.306Z,95703.25
2022-10-09T17:41:25.007Z,95706.47
2022-10-09T17:43:53.950Z,95711.00
2022-10-09T17:46:22.265Z,95706.16
2022-10-09T17:48:50.882Z,95704.31
2022-10-09T17:51:20.469Z,95701.66
2022-10-09T17:53:48.173Z,95708.00
2022-10-09T17:56:15.359Z,95711.44
2022-10-09T17:58:42.387Z,95705.34
2022-10-09T18:01:11.407Z,95702.94
2022-10-09T18:03:38.646Z,95711.44
2022-10-09T18:06:09.447Z,95711.69
2022-10-09T18:08:36.846Z,95715.47
2022-10-09T18:11:06.786Z,95703.75
2022-10-09T18:13:34.926Z,95707.44
2022-10-09T18:16:05.469Z,95706.66
2022-10-09T18:18:32.688Z,95701.81
2022-10-09T18:21:03.225Z,95708.38
2022-10-09T18:23:32.568Z,95711.53
2022-10-09T18:25:59.785Z,95709.69
2022-10-09T18:30:55.928Z,95714.03
2022-10-09T18:33:23.227Z,95706.31
2022-10-09T18:35:50.345Z,95706.56
2022-10-09T18:38:17.481Z,95721.41
2022-10-09T18:40:46.237Z,95705.53
2022-10-09T18:43:13.508Z,95702.06
2022-10-09T18:45:45.707Z,95707.03
2022-10-09T18:48:14.025Z,95700.63
2022-10-09T18:50:42.466Z,95701.34
2022-10-09T18:53:10.707Z,95703.09
2022-10-09T18:55:38.868Z,95707.13
2022-10-09T18:58:07.486Z,95706.75
2022-10-09T19:00:36.538Z,95706.19
2022-10-09T19:03:04.105Z,95698.72
2022-10-09T19:05:31.248Z,95708.75
2022-10-09T19:07:58.307Z,95700.25
2022-10-09T19:10:25.626Z,95704.97
2022-10-09T19:12:52.725Z,95703.91
2022-10-09T19:15:21.906Z,95715.91
2022-10-09T19:17:49.248Z,95709.00
2022-10-09T19:20:16.586Z,95711.66
2022-10-09T19:22:43.726Z,95709.22
2022-10-09T19:25:10.987Z,95708.09
2022-10-09T19:27:38.065Z,95706.25
2022-10-09T19:30:06.285Z,95713.94
2022-10-09T19:32:34.945Z,95719.03
2022-10-09T19:35:02.056Z,95710.28
2022-10-09T19:37:29.977Z,95715.00
2022-10-09T19:39:57.629Z,95710.75
2022-10-09T19:42:24.693Z,95710.97
2022-10-09T19:44:51.972Z,95718.38
2022-10-09T19:47:19.178Z,95711.69
2022-10-09T19:49:47.647Z,95719.63
2022-10-09T19:52:14.786Z,95718.03
2022-10-09T19:54:41.949Z,95722.06
2022-10-09T19:57:09.027Z,95724.47
2022-10-09T19:59:36.165Z,95721.50
2022-10-09T20:02:03.387Z,95724.38
2022-10-09T20:04:30.447Z,95728.16
2022-10-09T20:06:59.689Z,95728.97
2022-10-09T20:09:27.548Z,95729.22
2022-10-09T20:11:54.689Z,95729.22
2022-10-09T20:14:21.868Z,95731.38
2022-10-09T20:16:49.008Z,95728.97
2022-10-09T20:19:16.246Z,95737.97
2022-10-09T20:21:43.368Z,95734.56
2022-10-09T20:24:11.908Z,95739.41
2022-10-09T20:26:42.933Z,95733.88
2022-10-09T20:29:10.528Z,95735.50
2022-10-09T20:31:37.729Z,95736.75
2022-10-09T20:34:05.028Z,95739.09
2022-10-09T20:36:34.707Z,95735.97
2022-10-09T20:39:04.849Z,95744.97
2022-10-09T20:41:33.790Z,95739.16
2022-10-09T20:44:02.590Z,95735.50
2022-10-09T20:46:32.908Z,95742.31
2022-10-09T20:49:01.887Z,95740.81
2022-10-09T20:51:28.994Z,95746.38
2022-10-09T20:53:58.570Z,95743.72
2022-10-09T20:56:27.969Z,95736.59
2022-10-09T20:58:57.368Z,95740.59
2022-10-09T21:01:25.578Z,95748.63
2022-10-09T21:03:52.748Z,95745.41
2022-10-09T21:06:22.410Z,95745.91
2022-10-09T21:08:50.328Z,95739.22
2022-10-09T21:11:19.067Z,95742.91
2022-10-09T21:13:47.736Z,95742.13
2022-10-09T21:16:19.026Z,95743.97
2022-10-09T21:18:46.645Z,95745.78
2022-10-09T21:21:15.708Z,95752.94
2022-10-09T21:23:44.187Z,95747.06
2022-10-09T21:26:13.726Z,95743.81
2022-10-09T21:28:40.975Z,95747.41
2022-10-09T21:31:09.407Z,95751.09
2022-10-09T21:33:38.505Z,95753.66
2022-10-09T21:36:10.687Z,95755.81
2022-10-09T21:38:37.789Z,95757.91
2022-10-09T21:41:05.287Z,95751.22
2022-10-09T21:43:32.387Z,95756.06
2022-10-09T21:45:59.526Z,95748.81
2022-10-09T21:48:26.708Z,95747.69
2022-10-09T21:50:55.227Z,95742.88
2022-10-09T21:53:22.305Z,95742.97
2022-10-09T21:55:49.388Z,95747.47
2022-10-09T21:58:16.388Z,95742.19
2022-10-09T22:00:43.425Z,95754.38
2022-10-09T22:03:10.487Z,95755.97
2022-10-09T22:05:39.687Z,95752.19
2022-10-09T22:08:10.173Z,95751.41
2022-10-09T22:10:37.268Z,95750.50
2022-10-09T22:13:04.407Z,95750.56
2022-10-09T22:15:31.425Z,95748.88
2022-10-09T22:17:58.588Z,95754.75
2022-10-09T22:20:26.053Z,95755.78
2022-10-09T22:22:53.344Z,95756.56
2022-10-09T22:25:22.118Z,95759.34
2022-10-09T22:27:49.187Z,95756.44
2022-10-09T22:30:16.750Z,95758.84
2022-10-09T22:32:43.928Z,95762.31
2022-10-09T22:35:10.969Z,95757.91
2022-10-09T22:37:38.043Z,95757.09
2022-10-09T22:40:06.158Z,95755.00
2022-10-09T22:42:35.388Z,95757.66
2022-10-09T22:45:02.832Z,95760.31
2022-10-09T22:47:29.877Z,95748.13
2022-10-09T22:49:56.926Z,95749.72
2022-10-09T22:52:24.268Z,95752.47
2022-10-09T22:54:51.297Z,95746.38
2022-10-09T22:57:18.806Z,95743.47
2022-10-09T22:59:47.526Z,95743.25
2022-10-09T23:02:14.726Z,95750.97
2022-10-09T23:04:41.827Z,95751.53
2022-10-09T23:07:09.886Z,95751.53
2022-10-09T23:09:36.909Z,95746.13
2022-10-09T23:12:04.295Z,95754.06
2022-10-09T23:14:31.367Z,95740.25
2022-10-09T23:16:59.838Z,95739.88
2022-10-09T23:19:26.923Z,95740.94
2022-10-09T23:21:53.877Z,95750.25
2022-10-09T23:24:20.919Z,95748.88
2022-10-09T23:26:51.526Z,95743.81
2022-10-09T23:29:20.426Z,95735.53
2022-10-09T23:31:47.709Z,95746.59
2022-10-09T23:34:16.207Z,95749.50
2022-10-09T23:36:43.347Z,95734.97
2022-10-09T23:39:10.647Z,95735.53
2022-10-09T23:41:38.566Z,95739.22
2022-10-09T23:44:05.783Z,95736.81
2022-10-09T23:46:33.087Z,95733.81
2022-10-09T23:49:00.330Z,95731.66
2022-10-09T23:51:29.347Z,95736.16
2022-10-09T23:53:57.565Z,95741.19
2022-10-09T23:56:27.066Z,95733.19
2022-10-09T23:58:55.670Z,95737.66
